createdAt,value
2023-03-27T00:02:16.479Z,15.10
2023-03-27T00:12:29.463Z,15.00
2023-03-27T00:22:42.443Z,13.50
2023-03-27T00:32:55.538Z,12.50
2023-03-27T00:43:36.494Z,13.50
2023-03-27T00:53:50.491Z,10.30
2023-03-27T01:04:04.504Z,10.20
2023-03-27T01:14:48.474Z,18.40
2023-03-27T01:25:10.555Z,12.70
2023-03-27T01:35:32.560Z,16.10
2023-03-27T01:46:05.529Z,16.80
2023-03-27T01:56:26.617Z,16.60
2023-03-27T02:06:45.540Z,18.50
2023-03-27T02:17:03.569Z,16.50
2023-03-27T02:27:23.546Z,18.25
2023-03-27T02:37:54.543Z,17.20
2023-03-27T02:48:14.578Z,18.00
2023-03-27T02:58:34.563Z,19.00
2023-03-27T03:08:49.618Z,17.80
2023-03-27T03:19:02.599Z,19.90
2023-03-27T03:29:15.604Z,20.50
2023-03-27T03:39:35.587Z,21.20
2023-03-27T03:49:48.610Z,20.30
2023-03-27T04:00:01.600Z,18.40
2023-03-27T04:10:16.619Z,17.90
2023-03-27T04:20:29.632Z,20.20
2023-03-27T04:30:43.628Z,18.60
2023-03-27T04:41:03.664Z,17.80
2023-03-27T04:51:17.643Z,16.90
2023-03-27T05:01:30.723Z,14.80
2023-03-27T05:11:44.679Z,13.20
2023-03-27T05:21:57.672Z,9.10
2023-03-27T05:32:10.684Z,10.80
2023-03-27T05:42:30.677Z,17.90
2023-03-27T05:52:43.705Z,18.40
2023-03-27T06:02:57.820Z,13.60
2023-03-27T06:13:16.759Z,13.00
2023-03-27T06:23:29.725Z,12.70
2023-03-27T06:33:42.728Z,16.70
2023-03-27T06:44:02.745Z,17.70
2023-03-27T06:54:15.724Z,12.90
2023-03-27T07:04:28.748Z,12.60
2023-03-27T07:14:41.708Z,11.90
2023-03-27T07:24:54.759Z,15.40
2023-03-27T07:35:07.769Z,16.90
2023-03-27T07:55:39.148Z,18.70
2023-03-27T08:05:45.663Z,15.80
2023-03-27T08:15:52.407Z,16.00
2023-03-27T08:26:01.928Z,20.80
2023-03-27T08:36:10.647Z,20.60
2023-03-27T08:46:27.162Z,20.70
2023-03-27T08:56:33.858Z,19.60
2023-03-27T09:07:02.133Z,23.10
2023-03-27T09:17:36.305Z,16.50
2023-03-27T09:27:42.963Z,10.50
2023-03-27T09:37:52.044Z,9.70
2023-03-27T09:48:04.074Z,12.70
2023-03-27T09:58:30.199Z,14.40
2023-03-27T10:08:49.003Z,10.90
2023-03-27T10:18:58.381Z,10.00
2023-03-27T10:29:24.082Z,9.30
2023-03-27T10:39:35.212Z,7.70
2023-03-27T10:49:59.946Z,7.50
2023-03-27T11:00:21.148Z,7.60
2023-03-27T11:10:46.211Z,7.40
2023-03-27T11:21:00.952Z,6.90
2023-03-27T11:31:14.977Z,6.30
2023-03-27T11:41:21.984Z,7.70
2023-03-27T11:51:31.389Z,5.80
2023-03-27T12:01:47.223Z,7.10
2023-03-27T12:12:08.806Z,5.70
2023-03-27T12:22:33.977Z,6.10
2023-03-27T12:32:55.656Z,6.50
2023-03-27T12:43:08.370Z,7.70
2023-03-27T12:53:40.915Z,5.60
2023-03-27T13:04:02.955Z,5.80
2023-03-27T13:15:05.123Z,5.10
2023-03-27T13:25:23.332Z,4.90
2023-03-27T13:35:35.317Z,6.40
2023-03-27T13:45:48.586Z,6.40
2023-03-27T13:56:04.524Z,6.30
2023-03-27T14:06:32.955Z,6.20
2023-03-27T14:16:48.441Z,6.30
2023-03-27T14:26:56.180Z,6.10
2023-03-27T14:37:23.936Z,5.10
2023-03-27T14:47:30.581Z,5.40
2023-03-27T14:57:37.186Z,5.60
2023-03-27T15:18:59.112Z,5.50
2023-03-27T15:29:36.103Z,6.70
2023-03-27T15:40:50.098Z,5.25
2023-03-27T15:51:06.096Z,5.30
2023-03-27T16:01:32.163Z,5.90
2023-03-27T16:11:54.150Z,6.50
2023-03-27T16:22:07.137Z,4.80
2023-03-27T16:32:21.122Z,6.30
2023-03-27T16:42:41.174Z,5.70
2023-03-27T16:52:54.150Z,5.00
2023-03-27T17:03:07.210Z,4.90
2023-03-27T17:13:20.141Z,6.30
2023-03-27T17:23:33.169Z,6.80
2023-03-27T17:33:46.175Z,8.70
2023-03-27T17:43:59.185Z,10.20
2023-03-27T17:54:12.193Z,7.80
2023-03-27T18:04:26.218Z,9.20
2023-03-27T18:14:39.187Z,13.50
2023-03-27T18:24:52.193Z,15.20
2023-03-27T18:35:05.234Z,17.50
2023-03-27T18:45:19.230Z,22.40
2023-03-27T18:55:32.195Z,15.80
2023-03-27T19:05:45.272Z,11.50
2023-03-27T19:15:58.263Z,9.00
2023-03-27T19:26:16.269Z,7.70
2023-03-27T19:36:29.223Z,8.90
2023-03-27T19:46:42.320Z,10.00
2023-03-27T19:56:55.275Z,12.20
2023-03-27T20:07:09.270Z,11.30
2023-03-27T20:17:28.548Z,8.90
2023-03-27T20:27:42.277Z,9.40
2023-03-27T20:37:55.280Z,9.50
2023-03-27T20:48:11.294Z,8.60
2023-03-27T20:58:24.299Z,11.30
2023-03-27T21:08:39.337Z,12.80
2023-03-27T21:18:52.298Z,13.90
2023-03-27T21:29:05.393Z,16.10
2023-03-27T21:39:18.337Z,14.70
2023-03-27T21:49:31.355Z,18.80
2023-03-27T21:59:51.335Z,13.80
2023-03-27T22:10:04.356Z,14.60
2023-03-27T22:20:18.383Z,15.90
2023-03-27T22:30:38.369Z,17.80
2023-03-27T22:40:58.349Z,16.80
2023-03-27T22:51:10.364Z,18.20
2023-03-27T23:01:23.399Z,15.10
2023-03-27T23:11:36.438Z,15.00
2023-03-27T23:21:49.375Z,14.60
2023-03-27T23:32:02.477Z,15.50
2023-03-27T23:42:22.406Z,14.10
2023-03-27T23:52:35.437Z,14.50
